sensor_id;sensor_type;location;lat;lon;timestamp;P1;durP1;ratioP1;P2;durP2;ratioP2
17773;SDS011;9011;33.236;-97.118;2023-04-01T00:01:10;19.83;;;2.60;;
17773;SDS011;9011;33.236;-97.118;2023-04-01T00:03:41;23.00;;;3.33;;
17773;SDS011;9011;33.236;-97.118;2023-04-01T00:06:11;22.48;;;3.05;;
17773;SDS011;9011;33.236;-97.118;2023-04-01T00:08:43;21.08;;;3.17;;
17773;SDS011;9011;33.236;-97.118;2023-04-01T00:11:11;17.23;;;2.75;;
17773;SDS011;9011;33.236;-97.118;2023-04-01T00:13:40;23.65;;;3.92;;
17773;SDS011;9011;33.236;-97.118;2023-04-01T00:16:09;18.98;;;2.58;;
17773;SDS011;9011;33.236;-97.118;2023-04-01T00:18:38;18.75;;;2.97;;
17773;SDS011;9011;33.236;-97.118;2023-04-01T00:21:07;20.88;;;2.58;;
17773;SDS011;9011;33.236;-97.118;2023-04-01T00:23:37;18.70;;;2.22;;
17773;SDS011;9011;33.236;-97.118;2023-04-01T00:26:05;21.42;;;2.70;;
17773;SDS011;9011;33.236;-97.118;2023-04-01T00:28:34;21.48;;;2.50;;
17773;SDS011;9011;33.236;-97.118;2023-04-01T00:31:04;23.13;;;2.33;;
17773;SDS011;9011;33.236;-97.118;2023-04-01T00:33:33;22.95;;;3.53;;
17773;SDS011;9011;33.236;-97.118;2023-04-01T00:36:10;16.52;;;2.05;;
17773;SDS011;9011;33.236;-97.118;2023-04-01T00:38:41;13.07;;;2.70;;
17773;SDS011;9011;33.236;-97.118;2023-04-01T00:41:10;13.85;;;2.85;;
17773;SDS011;9011;33.236;-97.118;2023-04-01T00:43:41;14.30;;;3.20;;
17773;SDS011;9011;33.236;-97.118;2023-04-01T00:46:11;18.58;;;3.22;;
17773;SDS011;9011;33.236;-97.118;2023-04-01T00:48:39;20.88;;;3.13;;
17773;SDS011;9011;33.236;-97.118;2023-04-01T00:51:12;18.63;;;2.30;;
17773;SDS011;9011;33.236;-97.118;2023-04-01T00:53:46;15.15;;;2.88;;
17773;SDS011;9011;33.236;-97.118;2023-04-01T00:56:17;16.98;;;2.53;;
17773;SDS011;9011;33.236;-97.118;2023-04-01T00:58:50;18.15;;;2.60;;
17773;SDS011;9011;33.236;-97.118;2023-04-01T01:01:22;14.77;;;2.22;;
17773;SDS011;9011;33.236;-97.118;2023-04-01T01:03:52;17.13;;;2.80;;
17773;SDS011;9011;33.236;-97.118;2023-04-01T01:06:23;13.02;;;2.58;;
17773;SDS011;9011;33.236;-97.118;2023-04-01T01:09:05;28.00;;;2.83;;
17773;SDS011;9011;33.236;-97.118;2023-04-01T01:11:41;14.95;;;2.25;;
17773;SDS011;9011;33.236;-97.118;2023-04-01T01:14:17;11.02;;;2.60;;
17773;SDS011;9011;33.236;-97.118;2023-04-01T01:16:53;18.63;;;3.03;;
17773;SDS011;9011;33.236;-97.118;2023-04-01T01:22:22;21.20;;;3.47;;
17773;SDS011;9011;33.236;-97.118;2023-04-01T01:25:16;13.00;;;2.67;;
17773;SDS011;9011;33.236;-97.118;2023-04-01T01:27:58;15.63;;;2.45;;
17773;SDS011;9011;33.236;-97.118;2023-04-01T01:30:40;18.13;;;2.10;;
17773;SDS011;9011;33.236;-97.118;2023-04-01T01:33:24;15.05;;;2.20;;
17773;SDS011;9011;33.236;-97.118;2023-04-01T01:36:10;17.70;;;3.25;;
17773;SDS011;9011;33.236;-97.118;2023-04-01T01:38:41;13.05;;;1.83;;
17773;SDS011;9011;33.236;-97.118;2023-04-01T01:41:11;12.07;;;2.80;;
17773;SDS011;9011;33.236;-97.118;2023-04-01T01:43:42;14.18;;;2.47;;
17773;SDS011;9011;33.236;-97.118;2023-04-01T01:46:14;18.05;;;2.95;;
17773;SDS011;9011;33.236;-97.118;2023-04-01T01:48:46;19.70;;;2.53;;
17773;SDS011;9011;33.236;-97.118;2023-04-01T01:51:19;14.60;;;2.75;;
17773;SDS011;9011;33.236;-97.118;2023-04-01T01:53:49;21.95;;;2.85;;
17773;SDS011;9011;33.236;-97.118;2023-04-01T01:56:17;19.35;;;2.65;;
17773;SDS011;9011;33.236;-97.118;2023-04-01T01:58:48;13.30;;;3.00;;
17773;SDS011;9011;33.236;-97.118;2023-04-01T02:01:20;24.80;;;3.22;;
17773;SDS011;9011;33.236;-97.118;2023-04-01T02:03:52;17.95;;;2.63;;
17773;SDS011;9011;33.236;-97.118;2023-04-01T02:06:24;20.60;;;3.40;;
17773;SDS011;9011;33.236;-97.118;2023-04-01T02:08:55;22.08;;;2.70;;
17773;SDS011;9011;33.236;-97.118;2023-04-01T02:11:27;17.27;;;2.40;;
17773;SDS011;9011;33.236;-97.118;2023-04-01T02:14:00;19.33;;;2.80;;
17773;SDS011;9011;33.236;-97.118;2023-04-01T02:16:32;15.52;;;2.72;;
17773;SDS011;9011;33.236;-97.118;2023-04-01T02:19:03;12.30;;;2.95;;
17773;SDS011;9011;33.236;-97.118;2023-04-01T02:21:37;15.13;;;3.28;;
17773;SDS011;9011;33.236;-97.118;2023-04-01T02:24:10;16.67;;;2.55;;
17773;SDS011;9011;33.236;-97.118;2023-04-01T02:26:42;15.80;;;3.67;;
17773;SDS011;9011;33.236;-97.118;2023-04-01T02:29:12;12.05;;;3.15;;
17773;SDS011;9011;33.236;-97.118;2023-04-01T02:31:41;16.63;;;3.85;;
17773;SDS011;9011;33.236;-97.118;2023-04-01T02:34:10;25.98;;;4.45;;
17773;SDS011;9011;33.236;-97.118;2023-04-01T02:36:41;19.52;;;3.78;;
17773;SDS011;9011;33.236;-97.118;2023-04-01T02:39:09;22.65;;;3.70;;
17773;SDS011;9011;33.236;-97.118;2023-04-01T02:41:39;15.45;;;3.38;;
17773;SDS011;9011;33.236;-97.118;2023-04-01T02:44:08;22.85;;;4.00;;
17773;SDS011;9011;33.236;-97.118;2023-04-01T02:46:37;20.52;;;4.18;;
17773;SDS011;9011;33.236;-97.118;2023-04-01T02:49:06;28.58;;;4.18;;
17773;SDS011;9011;33.236;-97.118;2023-04-01T02:51:34;24.83;;;3.67;;
17773;SDS011;9011;33.236;-97.118;2023-04-01T02:54:04;21.80;;;3.90;;
17773;SDS011;9011;33.236;-97.118;2023-04-01T02:56:33;19.90;;;3.92;;
17773;SDS011;9011;33.236;-97.118;2023-04-01T02:59:01;17.38;;;3.63;;
17773;SDS011;9011;33.236;-97.118;2023-04-01T03:01:30;24.92;;;4.05;;
17773;SDS011;9011;33.236;-97.118;2023-04-01T03:03:58;13.23;;;3.50;;
17773;SDS011;9011;33.236;-97.118;2023-04-01T03:06:27;16.52;;;3.00;;
17773;SDS011;9011;33.236;-97.118;2023-04-01T03:08:55;15.52;;;3.22;;
17773;SDS011;9011;33.236;-97.118;2023-04-01T03:11:25;22.38;;;4.20;;
17773;SDS011;9011;33.236;-97.118;2023-04-01T03:13:53;23.30;;;3.97;;
17773;SDS011;9011;33.236;-97.118;2023-04-01T03:16:22;23.60;;;3.80;;
17773;SDS011;9011;33.236;-97.118;2023-04-01T03:18:50;24.27;;;4.60;;
17773;SDS011;9011;33.236;-97.118;2023-04-01T03:21:21;26.45;;;3.72;;
17773;SDS011;9011;33.236;-97.118;2023-04-01T03:23:50;19.55;;;4.30;;
17773;SDS011;9011;33.236;-97.118;2023-04-01T03:26:19;23.60;;;4.18;;
17773;SDS011;9011;33.236;-97.118;2023-04-01T03:28:49;26.10;;;3.83;;
17773;SDS011;9011;33.236;-97.118;2023-04-01T03:31:18;24.70;;;4.93;;
17773;SDS011;9011;33.236;-97.118;2023-04-01T03:33:46;21.95;;;3.95;;
17773;SDS011;9011;33.236;-97.118;2023-04-01T03:36:15;26.75;;;4.28;;
17773;SDS011;9011;33.236;-97.118;2023-04-01T03:38:44;20.08;;;3.22;;
17773;SDS011;9011;33.236;-97.118;2023-04-01T03:41:13;19.58;;;3.25;;
17773;SDS011;9011;33.236;-97.118;2023-04-01T03:43:41;19.95;;;3.13;;
17773;SDS011;9011;33.236;-97.118;2023-04-01T03:46:12;17.67;;;3.50;;
17773;SDS011;9011;33.236;-97.118;2023-04-01T03:48:44;18.23;;;3.63;;
17773;SDS011;9011;33.236;-97.118;2023-04-01T03:51:14;21.65;;;4.03;;
17773;SDS011;9011;33.236;-97.118;2023-04-01T03:53:42;24.88;;;3.97;;
17773;SDS011;9011;33.236;-97.118;2023-04-01T03:56:11;22.50;;;3.90;;
17773;SDS011;9011;33.236;-97.118;2023-04-01T03:58:39;19.27;;;4.05;;
17773;SDS011;9011;33.236;-97.118;2023-04-01T04:01:16;15.05;;;2.83;;
17773;SDS011;9011;33.236;-97.118;2023-04-01T04:03:46;24.25;;;4.65;;
17773;SDS011;9011;33.236;-97.118;2023-04-01T04:06:15;26.63;;;3.97;;
17773;SDS011;9011;33.236;-97.118;2023-04-01T04:08:44;23.85;;;3.40;;
17773;SDS011;9011;33.236;-97.118;2023-04-01T04:11:13;20.58;;;4.18;;
17773;SDS011;9011;33.236;-97.118;2023-04-01T04:13:42;22.92;;;3.72;;
17773;SDS011;9011;33.236;-97.118;2023-04-01T04:16:13;20.70;;;3.10;;
17773;SDS011;9011;33.236;-97.118;2023-04-01T04:18:43;22.92;;;3.13;;
17773;SDS011;9011;33.236;-97.118;2023-04-01T04:21:12;22.80;;;3.53;;
17773;SDS011;9011;33.236;-97.118;2023-04-01T04:23:42;19.67;;;3.60;;
17773;SDS011;9011;33.236;-97.118;2023-04-01T04:26:11;21.02;;;4.18;;
17773;SDS011;9011;33.236;-97.118;2023-04-01T04:28:40;20.45;;;4.38;;
17773;SDS011;9011;33.236;-97.118;2023-04-01T04:31:10;22.00;;;2.90;;
17773;SDS011;9011;33.236;-97.118;2023-04-01T04:33:39;32.20;;;4.72;;
17773;SDS011;9011;33.236;-97.118;2023-04-01T04:36:09;16.80;;;3.58;;
17773;SDS011;9011;33.236;-97.118;2023-04-01T04:38:38;23.45;;;3.33;;
17773;SDS011;9011;33.236;-97.118;2023-04-01T04:41:08;16.23;;;3.53;;
17773;SDS011;9011;33.236;-97.118;2023-04-01T04:43:37;21.92;;;4.13;;
17773;SDS011;9011;33.236;-97.118;2023-04-01T04:46:06;16.85;;;3.67;;
17773;SDS011;9011;33.236;-97.118;2023-04-01T04:48:34;16.40;;;3.15;;
17773;SDS011;9011;33.236;-97.118;2023-04-01T04:51:03;18.35;;;3.85;;
17773;SDS011;9011;33.236;-97.118;2023-04-01T04:53:33;19.48;;;3.20;;
17773;SDS011;9011;33.236;-97.118;2023-04-01T04:56:02;22.25;;;3.75;;
17773;SDS011;9011;33.236;-97.118;2023-04-01T04:58:30;19.02;;;3.25;;
17773;SDS011;9011;33.236;-97.118;2023-04-01T05:00:59;20.98;;;3.60;;
17773;SDS011;9011;33.236;-97.118;2023-04-01T05:03:32;15.48;;;3.10;;
17773;SDS011;9011;33.236;-97.118;2023-04-01T05:06:01;12.93;;;3.05;;
17773;SDS011;9011;33.236;-97.118;2023-04-01T05:08:29;18.50;;;3.63;;
17773;SDS011;9011;33.236;-97.118;2023-04-01T05:11:01;17.30;;;2.50;;
17773;SDS011;9011;33.236;-97.118;2023-04-01T05:13:29;18.23;;;3.08;;
17773;SDS011;9011;33.236;-97.118;2023-04-01T05:15:58;17.25;;;3.40;;
17773;SDS011;9011;33.236;-97.118;2023-04-01T05:18:26;15.40;;;2.92;;
17773;SDS011;9011;33.236;-97.118;2023-04-01T05:20:55;16.83;;;2.40;;
17773;SDS011;9011;33.236;-97.118;2023-04-01T05:23:23;18.45;;;2.83;;
17773;SDS011;9011;33.236;-97.118;2023-04-01T05:25:52;14.93;;;2.78;;
17773;SDS011;9011;33.236;-97.118;2023-04-01T05:28:24;13.63;;;2.55;;
17773;SDS011;9011;33.236;-97.118;2023-04-01T05:30:52;14.10;;;2.40;;
17773;SDS011;9011;33.236;-97.118;2023-04-01T05:33:21;16.45;;;2.97;;
17773;SDS011;9011;33.236;-97.118;2023-04-01T05:35:50;15.63;;;3.58;;
17773;SDS011;9011;33.236;-97.118;2023-04-01T05:38:18;19.30;;;3.42;;
17773;SDS011;9011;33.236;-97.118;2023-04-01T05:40:47;14.80;;;2.78;;
17773;SDS011;9011;33.236;-97.118;2023-04-01T05:43:17;10.52;;;1.92;;
17773;SDS011;9011;33.236;-97.118;2023-04-01T05:45:47;17.55;;;2.17;;
17773;SDS011;9011;33.236;-97.118;2023-04-01T05:48:19;13.55;;;2.40;;
17773;SDS011;9011;33.236;-97.118;2023-04-01T05:50:47;21.35;;;3.13;;
17773;SDS011;9011;33.236;-97.118;2023-04-01T05:53:16;14.63;;;3.17;;
17773;SDS011;9011;33.236;-97.118;2023-04-01T05:55:44;18.27;;;2.75;;
17773;SDS011;9011;33.236;-97.118;2023-04-01T05:58:13;19.27;;;3.00;;
17773;SDS011;9011;33.236;-97.118;2023-04-01T06:00:41;13.00;;;2.70;;
17773;SDS011;9011;33.236;-97.118;2023-04-01T06:03:11;19.08;;;3.55;;
17773;SDS011;9011;33.236;-97.118;2023-04-01T06:05:40;17.45;;;2.92;;
17773;SDS011;9011;33.236;-97.118;2023-04-01T06:08:11;13.73;;;3.22;;
17773;SDS011;9011;33.236;-97.118;2023-04-01T06:10:45;15.30;;;2.55;;
17773;SDS011;9011;33.236;-97.118;2023-04-01T06:13:30;17.98;;;3.05;;
17773;SDS011;9011;33.236;-97.118;2023-04-01T06:16:16;14.85;;;2.42;;
17773;SDS011;9011;33.236;-97.118;2023-04-01T06:18:56;15.07;;;2.25;;
17773;SDS011;9011;33.236;-97.118;2023-04-01T06:24:36;17.27;;;2.95;;
17773;SDS011;9011;33.236;-97.118;2023-04-01T06:27:24;13.32;;;2.15;;
17773;SDS011;9011;33.236;-97.118;2023-04-01T06:30:07;14.95;;;2.75;;
17773;SDS011;9011;33.236;-97.118;2023-04-01T06:32:57;14.77;;;2.33;;
17773;SDS011;9011;33.236;-97.118;2023-04-01T06:35:45;13.82;;;2.72;;
17773;SDS011;9011;33.236;-97.118;2023-04-01T06:38:30;11.50;;;2.05;;
17773;SDS011;9011;33.236;-97.118;2023-04-01T06:41:22;12.68;;;2.20;;
17773;SDS011;9011;33.236;-97.118;2023-04-01T06:44:16;12.00;;;2.30;;
17773;SDS011;9011;33.236;-97.118;2023-04-01T06:46:52;13.65;;;2.90;;
17773;SDS011;9011;33.236;-97.118;2023-04-01T06:49:29;12.18;;;2.50;;
17773;SDS011;9011;33.236;-97.118;2023-04-01T06:52:08;16.00;;;2.25;;
17773;SDS011;9011;33.236;-97.118;2023-04-01T06:54:46;11.13;;;2.15;;
17773;SDS011;9011;33.236;-97.118;2023-04-01T06:57:20;15.30;;;2.47;;
17773;SDS011;9011;33.236;-97.118;2023-04-01T06:59:55;8.23;;;2.00;;
17773;SDS011;9011;33.236;-97.118;2023-04-01T07:02:28;10.98;;;2.10;;
17773;SDS011;9011;33.236;-97.118;2023-04-01T07:05:01;9.70;;;1.98;;
17773;SDS011;9011;33.236;-97.118;2023-04-01T07:07:34;16.02;;;2.20;;
17773;SDS011;9011;33.236;-97.118;2023-04-01T07:10:09;12.18;;;2.97;;
17773;SDS011;9011;33.236;-97.118;2023-04-01T07:12:43;13.27;;;2.15;;
17773;SDS011;9011;33.236;-97.118;2023-04-01T07:15:17;14.88;;;1.95;;
17773;SDS011;9011;33.236;-97.118;2023-04-01T07:17:53;13.25;;;2.17;;
17773;SDS011;9011;33.236;-97.118;2023-04-01T07:20:25;12.65;;;2.30;;
17773;SDS011;9011;33.236;-97.118;2023-04-01T07:22:59;14.27;;;1.45;;
17773;SDS011;9011;33.236;-97.118;2023-04-01T07:25:31;13.50;;;2.47;;
17773;SDS011;9011;33.236;-97.118;2023-04-01T07:28:04;13.23;;;2.92;;
17773;SDS011;9011;33.236;-97.118;2023-04-01T07:30:42;13.32;;;2.25;;
17773;SDS011;9011;33.236;-97.118;2023-04-01T07:33:20;11.63;;;2.08;;
17773;SDS011;9011;33.236;-97.118;2023-04-01T07:35:53;11.82;;;2.10;;
17773;SDS011;9011;33.236;-97.118;2023-04-01T07:38:29;12.23;;;1.77;;
17773;SDS011;9011;33.236;-97.118;2023-04-01T07:41:08;8.60;;;1.73;;
17773;SDS011;9011;33.236;-97.118;2023-04-01T07:43:47;12.05;;;2.13;;
17773;SDS011;9011;33.236;-97.118;2023-04-01T07:46:28;10.60;;;1.77;;
17773;SDS011;9011;33.236;-97.118;2023-04-01T07:49:06;9.82;;;2.33;;
17773;SDS011;9011;33.236;-97.118;2023-04-01T07:51:42;7.20;;;1.83;;
17773;SDS011;9011;33.236;-97.118;2023-04-01T07:54:19;13.70;;;2.15;;
17773;SDS011;9011;33.236;-97.118;2023-04-01T07:56:51;8.77;;;1.88;;
17773;SDS011;9011;33.236;-97.118;2023-04-01T07:59:28;14.25;;;2.58;;
17773;SDS011;9011;33.236;-97.118;2023-04-01T08:02:07;10.13;;;1.67;;
17773;SDS011;9011;33.236;-97.118;2023-04-01T08:04:51;12.75;;;1.85;;
17773;SDS011;9011;33.236;-97.118;2023-04-01T08:07:29;12.80;;;2.20;;
17773;SDS011;9011;33.236;-97.118;2023-04-01T08:10:07;10.98;;;1.92;;
17773;SDS011;9011;33.236;-97.118;2023-04-01T08:12:43;9.85;;;2.25;;
17773;SDS011;9011;33.236;-97.118;2023-04-01T08:15:21;13.40;;;2.45;;
17773;SDS011;9011;33.236;-97.118;2023-04-01T08:17:56;11.55;;;1.83;;
17773;SDS011;9011;33.236;-97.118;2023-04-01T08:20:36;14.45;;;2.25;;
17773;SDS011;9011;33.236;-97.118;2023-04-01T08:23:11;10.35;;;1.60;;
17773;SDS011;9011;33.236;-97.118;2023-04-01T08:25:46;8.48;;;1.60;;
17773;SDS011;9011;33.236;-97.118;2023-04-01T08:28:22;9.10;;;2.13;;
17773;SDS011;9011;33.236;-97.118;2023-04-01T08:30:57;6.60;;;1.38;;
17773;SDS011;9011;33.236;-97.118;2023-04-01T08:33:30;11.15;;;1.75;;
17773;SDS011;9011;33.236;-97.118;2023-04-01T08:36:02;9.55;;;1.60;;
17773;SDS011;9011;33.236;-97.118;2023-04-01T08:38:36;9.80;;;1.77;;
17773;SDS011;9011;33.236;-97.118;2023-04-01T08:44:15;7.35;;;1.30;;
17773;SDS011;9011;33.236;-97.118;2023-04-01T08:47:10;10.40;;;1.35;;
17773;SDS011;9011;33.236;-97.118;2023-04-01T08:50:09;9.98;;;1.75;;
17773;SDS011;9011;33.236;-97.118;2023-04-01T08:52:58;6.28;;;1.20;;
17773;SDS011;9011;33.236;-97.118;2023-04-01T08:55:51;7.93;;;1.63;;
17773;SDS011;9011;33.236;-97.118;2023-04-01T09:01:32;10.55;;;1.40;;
17773;SDS011;9011;33.236;-97.118;2023-04-01T09:07:21;6.45;;;1.60;;
17773;SDS011;9011;33.236;-97.118;2023-04-01T09:10:17;7.65;;;1.40;;
17773;SDS011;9011;33.236;-97.118;2023-04-01T09:13:03;10.05;;;2.15;;
17773;SDS011;9011;33.236;-97.118;2023-04-01T09:15:55;7.90;;;1.50;;
17773;SDS011;9011;33.236;-97.118;2023-04-01T09:21:50;6.00;;;1.92;;
17773;SDS011;9011;33.236;-97.118;2023-04-01T09:24:35;6.25;;;1.13;;
17773;SDS011;9011;33.236;-97.118;2023-04-01T09:27:26;9.05;;;1.30;;
17773;SDS011;9011;33.236;-97.118;2023-04-01T09:36:21;9.10;;;1.85;;
17773;SDS011;9011;33.236;-97.118;2023-04-01T09:39:03;6.07;;;1.15;;
17773;SDS011;9011;33.236;-97.118;2023-04-01T09:42:15;6.25;;;1.00;;
17773;SDS011;9011;33.236;-97.118;2023-04-01T09:44:58;9.90;;;1.40;;
17773;SDS011;9011;33.236;-97.118;2023-04-01T09:47:32;6.93;;;1.25;;
17773;SDS011;9011;33.236;-97.118;2023-04-01T09:50:28;9.60;;;1.30;;
17773;SDS011;9011;33.236;-97.118;2023-04-01T09:53:07;5.43;;;1.05;;
17773;SDS011;9011;33.236;-97.118;2023-04-01T10:08:23;9.32;;;0.90;;
17773;SDS011;9011;33.236;-97.118;2023-04-01T10:17:46;6.80;;;0.88;;
17773;SDS011;9011;33.236;-97.118;2023-04-01T10:20:52;3.85;;;1.17;;
17773;SDS011;9011;33.236;-97.118;2023-04-01T10:23:47;3.22;;;1.10;;
17773;SDS011;9011;33.236;-97.118;2023-04-01T10:27:06;3.92;;;1.10;;
17773;SDS011;9011;33.236;-97.118;2023-04-01T10:30:01;7.35;;;1.63;;
17773;SDS011;9011;33.236;-97.118;2023-04-01T10:33:05;11.30;;;1.05;;
17773;SDS011;9011;33.236;-97.118;2023-04-01T10:36:12;7.60;;;1.38;;
17773;SDS011;9011;33.236;-97.118;2023-04-01T10:39:08;5.85;;;1.10;;
17773;SDS011;9011;33.236;-97.118;2023-04-01T10:45:08;11.57;;;1.60;;
17773;SDS011;9011;33.236;-97.118;2023-04-01T10:48:18;4.47;;;1.77;;
17773;SDS011;9011;33.236;-97.118;2023-04-01T10:51:12;5.20;;;1.00;;
17773;SDS011;9011;33.236;-97.118;2023-04-01T10:54:02;6.03;;;1.25;;
17773;SDS011;9011;33.236;-97.118;2023-04-01T10:56:54;3.50;;;0.90;;
17773;SDS011;9011;33.236;-97.118;2023-04-01T11:06:13;8.00;;;0.93;;
17773;SDS011;9011;33.236;-97.118;2023-04-01T11:09:19;9.32;;;1.00;;
17773;SDS011;9011;33.236;-97.118;2023-04-01T11:15:41;3.60;;;0.70;;
17773;SDS011;9011;33.236;-97.118;2023-04-01T11:24:40;4.47;;;1.08;;
17773;SDS011;9011;33.236;-97.118;2023-04-01T11:27:35;7.82;;;1.15;;
17773;SDS011;9011;33.236;-97.118;2023-04-01T11:30:26;4.85;;;1.00;;
17773;SDS011;9011;33.236;-97.118;2023-04-01T11:33:03;8.70;;;1.00;;
17773;SDS011;9011;33.236;-97.118;2023-04-01T11:39:01;7.50;;;1.30;;
17773;SDS011;9011;33.236;-97.118;2023-04-01T11:41:43;5.47;;;1.02;;
17773;SDS011;9011;33.236;-97.118;2023-04-01T11:44:17;8.18;;;1.00;;
17773;SDS011;9011;33.236;-97.118;2023-04-01T11:46:52;6.03;;;1.45;;
17773;SDS011;9011;33.236;-97.118;2023-04-01T11:49:36;6.15;;;1.35;;
17773;SDS011;9011;33.236;-97.118;2023-04-01T11:52:17;8.68;;;1.02;;
17773;SDS011;9011;33.236;-97.118;2023-04-01T11:58:05;3.65;;;1.08;;
17773;SDS011;9011;33.236;-97.118;2023-04-01T12:01:01;7.95;;;1.23;;
17773;SDS011;9011;33.236;-97.118;2023-04-01T12:06:48;7.70;;;0.98;;
17773;SDS011;9011;33.236;-97.118;2023-04-01T12:09:23;5.85;;;0.90;;
17773;SDS011;9011;33.236;-97.118;2023-04-01T12:11:57;6.75;;;1.10;;
17773;SDS011;9011;33.236;-97.118;2023-04-01T12:14:32;4.22;;;1.23;;
17773;SDS011;9011;33.236;-97.118;2023-04-01T12:17:10;10.00;;;1.33;;
17773;SDS011;9011;33.236;-97.118;2023-04-01T12:19:52;9.68;;;1.20;;
17773;SDS011;9011;33.236;-97.118;2023-04-01T12:22:32;7.07;;;1.40;;
17773;SDS011;9011;33.236;-97.118;2023-04-01T12:25:27;5.55;;;1.10;;
17773;SDS011;9011;33.236;-97.118;2023-04-01T12:28:18;11.27;;;1.27;;
17773;SDS011;9011;33.236;-97.118;2023-04-01T12:30:57;5.20;;;1.48;;
17773;SDS011;9011;33.236;-97.118;2023-04-01T12:33:45;16.30;;;1.90;;
17773;SDS011;9011;33.236;-97.118;2023-04-01T12:36:26;9.10;;;1.30;;
17773;SDS011;9011;33.236;-97.118;2023-04-01T12:42:14;14.35;;;1.33;;
17773;SDS011;9011;33.236;-97.118;2023-04-01T12:44:57;6.77;;;1.27;;
17773;SDS011;9011;33.236;-97.118;2023-04-01T12:50:50;6.90;;;1.10;;
17773;SDS011;9011;33.236;-97.118;2023-04-01T12:53:46;6.95;;;1.20;;
17773;SDS011;9011;33.236;-97.118;2023-04-01T12:56:31;7.32;;;0.85;;
17773;SDS011;9011;33.236;-97.118;2023-04-01T12:59:19;8.98;;;1.17;;
17773;SDS011;9011;33.236;-97.118;2023-04-01T13:02:07;5.43;;;0.90;;
17773;SDS011;9011;33.236;-97.118;2023-04-01T13:05:06;7.90;;;1.13;;
17773;SDS011;9011;33.236;-97.118;2023-04-01T13:08:00;2.03;;;0.85;;
17773;SDS011;9011;33.236;-97.118;2023-04-01T13:10:38;6.82;;;1.08;;
17773;SDS011;9011;33.236;-97.118;2023-04-01T13:13:29;6.90;;;1.55;;
17773;SDS011;9011;33.236;-97.118;2023-04-01T13:16:12;5.38;;;1.15;;
17773;SDS011;9011;33.236;-97.118;2023-04-01T13:18:48;8.20;;;1.33;;
17773;SDS011;9011;33.236;-97.118;2023-04-01T13:21:28;8.10;;;2.72;;
17773;SDS011;9011;33.236;-97.118;2023-04-01T13:24:05;7.45;;;0.90;;
17773;SDS011;9011;33.236;-97.118;2023-04-01T13:26:43;3.28;;;1.05;;
17773;SDS011;9011;33.236;-97.118;2023-04-01T13:29:20;4.00;;;0.95;;
17773;SDS011;9011;33.236;-97.118;2023-04-01T13:32:00;3.17;;;1.08;;
17773;SDS011;9011;33.236;-97.118;2023-04-01T13:34:46;9.43;;;0.88;;
17773;SDS011;9011;33.236;-97.118;2023-04-01T13:37:35;5.55;;;1.02;;
17773;SDS011;9011;33.236;-97.118;2023-04-01T13:40:28;4.75;;;0.80;;
17773;SDS011;9011;33.236;-97.118;2023-04-01T13:43:08;4.90;;;1.25;;
17773;SDS011;9011;33.236;-97.118;2023-04-01T13:45:42;3.42;;;0.85;;
17773;SDS011;9011;33.236;-97.118;2023-04-01T13:48:26;1.63;;;0.70;;
17773;SDS011;9011;33.236;-97.118;2023-04-01T13:51:31;2.33;;;0.80;;
17773;SDS011;9011;33.236;-97.118;2023-04-01T13:57:16;3.22;;;0.65;;
17773;SDS011;9011;33.236;-97.118;2023-04-01T14:00:00;4.82;;;0.82;;
17773;SDS011;9011;33.236;-97.118;2023-04-01T14:02:45;2.08;;;0.60;;
17773;SDS011;9011;33.236;-97.118;2023-04-01T14:05:33;4.63;;;0.80;;
17773;SDS011;9011;33.236;-97.118;2023-04-01T14:08:15;5.72;;;0.77;;
17773;SDS011;9011;33.236;-97.118;2023-04-01T14:10:56;2.92;;;0.80;;
17773;SDS011;9011;33.236;-97.118;2023-04-01T14:13:36;3.55;;;0.47;;
17773;SDS011;9011;33.236;-97.118;2023-04-01T14:16:14;1.95;;;0.50;;
17773;SDS011;9011;33.236;-97.118;2023-04-01T14:19:11;6.65;;;0.82;;
17773;SDS011;9011;33.236;-97.118;2023-04-01T14:21:55;4.20;;;0.90;;
17773;SDS011;9011;33.236;-97.118;2023-04-01T14:24:36;2.22;;;0.40;;
17773;SDS011;9011;33.236;-97.118;2023-04-01T14:27:27;2.25;;;0.50;;
17773;SDS011;9011;33.236;-97.118;2023-04-01T14:30:26;4.03;;;0.60;;
17773;SDS011;9011;33.236;-97.118;2023-04-01T14:33:06;3.25;;;0.80;;
17773;SDS011;9011;33.236;-97.118;2023-04-01T14:35:49;2.17;;;0.70;;
17773;SDS011;9011;33.236;-97.118;2023-04-01T14:38:31;1.02;;;0.70;;
17773;SDS011;9011;33.236;-97.118;2023-04-01T14:41:11;3.35;;;0.85;;
17773;SDS011;9011;33.236;-97.118;2023-04-01T14:47:07;1.90;;;0.70;;
17773;SDS011;9011;33.236;-97.118;2023-04-01T14:49:51;1.02;;;0.73;;
17773;SDS011;9011;33.236;-97.118;2023-04-01T14:52:30;1.52;;;0.70;;
17773;SDS011;9011;33.236;-97.118;2023-04-01T14:55:01;5.60;;;0.90;;
17773;SDS011;9011;33.236;-97.118;2023-04-01T14:57:46;3.78;;;0.60;;
17773;SDS011;9011;33.236;-97.118;2023-04-01T15:00:26;0.98;;;0.57;;
17773;SDS011;9011;33.236;-97.118;2023-04-01T15:03:09;2.75;;;0.77;;
17773;SDS011;9011;33.236;-97.118;2023-04-01T15:05:46;2.30;;;0.73;;
17773;SDS011;9011;33.236;-97.118;2023-04-01T15:08:20;9.27;;;1.30;;
17773;SDS011;9011;33.236;-97.118;2023-04-01T15:13:52;3.47;;;0.57;;
17773;SDS011;9011;33.236;-97.118;2023-04-01T15:16:40;5.00;;;0.70;;
17773;SDS011;9011;33.236;-97.118;2023-04-01T15:19:18;6.03;;;1.13;;
17773;SDS011;9011;33.236;-97.118;2023-04-01T15:21:57;1.63;;;0.57;;
17773;SDS011;9011;33.236;-97.118;2023-04-01T15:24:42;0.80;;;0.43;;
17773;SDS011;9011;33.236;-97.118;2023-04-01T15:27:20;2.75;;;0.70;;
17773;SDS011;9011;33.236;-97.118;2023-04-01T15:30:02;2.15;;;0.63;;
17773;SDS011;9011;33.236;-97.118;2023-04-01T15:32:59;1.50;;;0.80;;
17773;SDS011;9011;33.236;-97.118;2023-04-01T15:35:40;0.52;;;0.40;;
17773;SDS011;9011;33.236;-97.118;2023-04-01T15:38:16;1.13;;;0.70;;
17773;SDS011;9011;33.236;-97.118;2023-04-01T15:40:53;6.65;;;1.30;;
17773;SDS011;9011;33.236;-97.118;2023-04-01T15:43:31;2.75;;;0.93;;
17773;SDS011;9011;33.236;-97.118;2023-04-01T15:49:20;2.55;;;0.63;;
17773;SDS011;9011;33.236;-97.118;2023-04-01T15:54:59;1.95;;;0.60;;
17773;SDS011;9011;33.236;-97.118;2023-04-01T15:57:43;4.38;;;0.82;;
17773;SDS011;9011;33.236;-97.118;2023-04-01T16:00:23;0.60;;;0.50;;
17773;SDS011;9011;33.236;-97.118;2023-04-01T16:03:08;2.78;;;0.60;;
17773;SDS011;9011;33.236;-97.118;2023-04-01T16:05:51;1.17;;;0.63;;
17773;SDS011;9011;33.236;-97.118;2023-04-01T16:08:42;1.42;;;0.60;;
17773;SDS011;9011;33.236;-97.118;2023-04-01T16:11:29;1.77;;;0.30;;
17773;SDS011;9011;33.236;-97.118;2023-04-01T16:14:12;0.55;;;0.40;;
17773;SDS011;9011;33.236;-97.118;2023-04-01T16:16:55;0.63;;;0.30;;
17773;SDS011;9011;33.236;-97.118;2023-04-01T16:19:45;1.40;;;0.40;;
17773;SDS011;9011;33.236;-97.118;2023-04-01T16:22:20;2.80;;;0.50;;
17773;SDS011;9011;33.236;-97.118;2023-04-01T16:24:55;3.03;;;0.75;;
17773;SDS011;9011;33.236;-97.118;2023-04-01T16:27:42;2.75;;;0.60;;
17773;SDS011;9011;33.236;-97.118;2023-04-01T16:30:23;1.13;;;0.30;;
17773;SDS011;9011;33.236;-97.118;2023-04-01T16:33:01;0.68;;;0.52;;
17773;SDS011;9011;33.236;-97.118;2023-04-01T16:35:41;0.98;;;0.60;;
17773;SDS011;9011;33.236;-97.118;2023-04-01T16:38:16;0.88;;;0.55;;
17773;SDS011;9011;33.236;-97.118;2023-04-01T16:40:57;1.92;;;0.40;;
17773;SDS011;9011;33.236;-97.118;2023-04-01T16:43:37;1.48;;;0.45;;
17773;SDS011;9011;33.236;-97.118;2023-04-01T16:49:14;1.52;;;0.65;;
17773;SDS011;9011;33.236;-97.118;2023-04-01T16:51:53;1.38;;;0.45;;
17773;SDS011;9011;33.236;-97.118;2023-04-01T16:54:28;1.08;;;0.47;;
17773;SDS011;9011;33.236;-97.118;2023-04-01T16:57:04;2.35;;;0.50;;
17773;SDS011;9011;33.236;-97.118;2023-04-01T16:59:47;2.55;;;0.70;;
17773;SDS011;9011;33.236;-97.118;2023-04-01T17:02:25;3.28;;;0.40;;
17773;SDS011;9011;33.236;-97.118;2023-04-01T17:05:00;0.65;;;0.40;;
17773;SDS011;9011;33.236;-97.118;2023-04-01T17:07:36;1.45;;;0.30;;